createdAt,value
2018-07-23T00:00:14.592Z,0
2018-07-23T00:01:15.899Z,0
2018-07-23T00:02:17.218Z,0
2018-07-23T00:03:18.539Z,0
2018-07-23T00:04:19.864Z,0
2018-07-23T00:05:21.179Z,0
2018-07-23T00:06:22.493Z,0
2018-07-23T00:07:23.808Z,0
2018-07-23T00:08:25.119Z,0
2018-07-23T00:09:26.432Z,0
2018-07-23T00:10:27.750Z,0
2018-07-23T00:11:29.064Z,0
2018-07-23T00:12:30.382Z,0
2018-07-23T00:13:31.693Z,0
2018-07-23T00:14:32.997Z,0
2018-07-23T00:15:34.318Z,0
2018-07-23T00:16:35.624Z,0
2018-07-23T00:17:36.939Z,0
2018-07-23T00:18:38.269Z,0
2018-07-23T00:19:39.579Z,0
2018-07-23T00:20:40.902Z,0
2018-07-23T00:21:42.209Z,0
2018-07-23T00:22:43.554Z,0
2018-07-23T00:23:44.869Z,0
2018-07-23T00:24:46.194Z,0
2018-07-23T00:25:47.509Z,0
2018-07-23T00:26:48.828Z,0
2018-07-23T00:27:50.139Z,0
2018-07-23T00:28:51.454Z,0
2018-07-23T00:29:52.762Z,0
2018-07-23T00:30:54.068Z,0
2018-07-23T00:31:55.389Z,0
2018-07-23T00:32:56.698Z,0
2018-07-23T00:33:58.013Z,0
2018-07-23T00:34:59.324Z,0
2018-07-23T00:36:00.646Z,0
2018-07-23T00:37:01.955Z,0
2018-07-23T00:38:03.278Z,0
2018-07-23T00:39:04.579Z,0
2018-07-23T00:40:05.898Z,0
2018-07-23T00:41:07.204Z,0
2018-07-23T00:42:08.524Z,0
2018-07-23T00:43:09.844Z,0
2018-07-23T00:44:11.156Z,0
2018-07-23T00:45:12.484Z,0
2018-07-23T00:46:13.797Z,0
2018-07-23T00:47:15.123Z,0
2018-07-23T00:48:16.423Z,0
2018-07-23T00:49:17.741Z,0
2018-07-23T00:50:19.064Z,0
2018-07-23T00:51:20.376Z,0
2018-07-23T00:52:21.689Z,0
2018-07-23T00:53:22.993Z,0
2018-07-23T00:54:24.309Z,0
2018-07-23T00:55:25.632Z,0
2018-07-23T00:56:26.951Z,0
2018-07-23T00:57:28.253Z,0
2018-07-23T00:58:29.577Z,0
2018-07-23T00:59:30.904Z,0
2018-07-23T01:00:32.223Z,0
2018-07-23T01:01:33.522Z,0
2018-07-23T01:02:34.854Z,0
2018-07-23T01:03:36.158Z,0
2018-07-23T01:04:37.480Z,0
2018-07-23T01:05:38.788Z,0
2018-07-23T01:06:40.104Z,0
2018-07-23T01:07:41.444Z,0
2018-07-23T01:08:42.753Z,0
2018-07-23T01:09:44.067Z,0
2018-07-23T01:10:45.379Z,0
2018-07-23T01:11:46.682Z,0
2018-07-23T01:12:47.998Z,0
2018-07-23T01:13:49.308Z,0
2018-07-23T01:14:50.623Z,0
2018-07-23T01:15:51.934Z,0
2018-07-23T01:16:53.254Z,0
2018-07-23T01:17:54.572Z,0
2018-07-23T01:18:55.892Z,0
2018-07-23T01:19:57.198Z,0
2018-07-23T01:20:58.502Z,0
2018-07-23T01:21:59.817Z,0
2018-07-23T01:23:01.128Z,0
2018-07-23T01:24:02.451Z,0
2018-07-23T01:25:03.763Z,0
2018-07-23T01:26:05.071Z,0
2018-07-23T01:27:06.392Z,0
2018-07-23T01:28:07.703Z,0
2018-07-23T01:29:09.024Z,0
2018-07-23T01:30:10.329Z,0
2018-07-23T01:31:11.657Z,0
2018-07-23T01:32:12.978Z,0
2018-07-23T01:33:14.278Z,0
2018-07-23T01:34:15.597Z,0
2018-07-23T01:35:16.961Z,0
2018-07-23T01:36:18.228Z,0
2018-07-23T01:37:19.542Z,0
2018-07-23T01:38:20.858Z,0
2018-07-23T01:39:22.178Z,0
2018-07-23T01:40:23.493Z,0
2018-07-23T01:41:24.810Z,0
2018-07-23T01:42:26.119Z,0
2018-07-23T01:43:27.439Z,0
2018-07-23T01:44:28.745Z,0
2018-07-23T01:45:30.070Z,0
2018-07-23T01:46:31.369Z,0
2018-07-23T01:47:32.679Z,0
2018-07-23T01:48:33.985Z,0
2018-07-23T01:49:35.293Z,0
2018-07-23T01:50:36.610Z,0
2018-07-23T01:51:37.930Z,0
2018-07-23T01:52:39.242Z,0
2018-07-23T01:53:40.559Z,0
2018-07-23T01:54:41.873Z,0
2018-07-23T01:55:43.183Z,0
2018-07-23T01:56:44.503Z,0
2018-07-23T01:57:45.810Z,0
2018-07-23T01:58:47.125Z,0
2018-07-23T01:59:48.433Z,0
2018-07-23T02:00:49.752Z,0
2018-07-23T02:01:51.054Z,0
2018-07-23T02:02:52.372Z,0
2018-07-23T02:03:53.748Z,0
2018-07-23T02:04:55.054Z,0
2018-07-23T02:05:56.385Z,0
2018-07-23T02:06:57.689Z,0
2018-07-23T02:07:58.998Z,0
2018-07-23T02:09:00.309Z,0
2018-07-23T02:10:01.620Z,0
2018-07-23T02:11:02.935Z,0
2018-07-23T02:12:04.253Z,0
2018-07-23T02:13:05.568Z,0
2018-07-23T02:14:06.874Z,0
2018-07-23T02:15:08.174Z,0
2018-07-23T02:16:09.509Z,0
2018-07-23T02:17:10.820Z,0
2018-07-23T02:18:12.172Z,0
2018-07-23T02:19:13.448Z,0
2018-07-23T02:20:14.764Z,0
2018-07-23T02:21:16.088Z,0
2018-07-23T02:22:17.418Z,0
2018-07-23T02:23:18.728Z,0
2018-07-23T02:24:20.039Z,0
2018-07-23T02:25:21.358Z,0
2018-07-23T02:26:22.665Z,0
2018-07-23T02:27:23.997Z,0
2018-07-23T02:28:25.313Z,0
2018-07-23T02:29:26.619Z,0
2018-07-23T02:30:27.933Z,0
2018-07-23T02:31:29.245Z,0
2018-07-23T02:32:30.560Z,0
2018-07-23T02:33:31.879Z,0
2018-07-23T02:34:33.180Z,0
2018-07-23T02:35:34.494Z,0
2018-07-23T02:36:35.804Z,0
2018-07-23T02:37:37.118Z,0
2018-07-23T02:38:38.429Z,0
2018-07-23T02:39:39.740Z,0
2018-07-23T02:40:41.049Z,0
2018-07-23T02:41:42.364Z,0
2018-07-23T02:42:43.685Z,0
2018-07-23T02:43:44.996Z,0
2018-07-23T02:44:46.310Z,0
2018-07-23T02:45:47.623Z,0
2018-07-23T02:46:48.944Z,0
2018-07-23T02:47:50.252Z,0
2018-07-23T02:48:51.566Z,0
2018-07-23T02:49:52.876Z,0
2018-07-23T02:50:54.190Z,0
2018-07-23T02:51:55.510Z,0
2018-07-23T02:52:56.831Z,0
2018-07-23T02:53:58.146Z,0
2018-07-23T02:54:59.448Z,0
2018-07-23T02:56:00.760Z,0
2018-07-23T02:57:02.071Z,0
2018-07-23T02:58:03.391Z,0
2018-07-23T02:59:04.690Z,0
2018-07-23T03:00:06.007Z,0
2018-07-23T03:01:07.321Z,0
2018-07-23T03:02:08.630Z,0
2018-07-23T03:03:09.944Z,0
2018-07-23T03:04:11.259Z,0
2018-07-23T03:05:12.565Z,0
2018-07-23T03:06:13.871Z,0
2018-07-23T03:07:15.180Z,0
2018-07-23T03:08:16.492Z,0
2018-07-23T03:09:17.809Z,0
2018-07-23T03:10:19.126Z,0
2018-07-23T03:11:20.435Z,0
2018-07-23T03:12:21.756Z,0
2018-07-23T03:13:23.060Z,0
2018-07-23T03:14:24.370Z,0
2018-07-23T03:15:25.680Z,0
2018-07-23T03:16:26.999Z,0
2018-07-23T03:17:28.315Z,0
2018-07-23T03:18:29.642Z,0
2018-07-23T03:19:30.954Z,0
2018-07-23T03:20:32.266Z,0
2018-07-23T03:21:33.650Z,0
2018-07-23T03:22:34.900Z,0
2018-07-23T03:23:36.213Z,0
2018-07-23T03:24:37.534Z,0
2018-07-23T03:25:38.860Z,0
2018-07-23T03:26:40.165Z,0
2018-07-23T03:27:41.480Z,0
2018-07-23T03:28:42.802Z,0
2018-07-23T03:29:44.114Z,0
2018-07-23T03:30:45.434Z,0
2018-07-23T03:31:46.751Z,0
2018-07-23T03:32:48.056Z,5
2018-07-23T03:33:49.370Z,5
2018-07-23T03:34:50.679Z,5
2018-07-23T03:35:51.999Z,5
2018-07-23T03:36:53.318Z,5
2018-07-23T03:37:54.645Z,5
2018-07-23T03:38:55.957Z,5
2018-07-23T03:39:57.267Z,5
2018-07-23T03:40:58.571Z,11
2018-07-23T03:41:59.892Z,11
2018-07-23T03:43:01.211Z,11
2018-07-23T03:44:02.525Z,11
2018-07-23T03:45:03.846Z,11
2018-07-23T03:46:05.152Z,16
2018-07-23T03:47:06.475Z,16
2018-07-23T03:48:07.800Z,16
2018-07-23T03:49:09.115Z,16
2018-07-23T03:50:10.421Z,22
2018-07-23T03:51:11.747Z,22
2018-07-23T03:52:13.055Z,22
2018-07-23T03:53:14.365Z,22
2018-07-23T03:54:15.685Z,28
2018-07-23T03:55:16.996Z,28
2018-07-23T03:56:18.320Z,28
2018-07-23T03:57:19.630Z,33
2018-07-23T03:58:20.940Z,33
2018-07-23T03:59:22.268Z,33
2018-07-23T04:00:23.587Z,39
2018-07-23T04:01:24.917Z,39
2018-07-23T04:02:26.225Z,39
2018-07-23T04:03:27.583Z,45
2018-07-23T04:04:28.860Z,45
2018-07-23T04:05:30.205Z,45
2018-07-23T04:06:31.501Z,50
2018-07-23T04:07:32.833Z,50
2018-07-23T04:08:34.139Z,56
2018-07-23T04:09:35.441Z,56
2018-07-23T04:10:36.762Z,56
2018-07-23T04:11:38.080Z,61
2018-07-23T04:12:39.395Z,61
2018-07-23T04:13:40.702Z,67
2018-07-23T04:14:42.027Z,67
2018-07-23T04:15:43.372Z,73
2018-07-23T04:16:44.687Z,73
2018-07-23T04:17:46.006Z,78
2018-07-23T04:18:47.311Z,78
2018-07-23T04:19:48.632Z,84
2018-07-23T04:20:49.952Z,84
2018-07-23T04:21:51.263Z,90
2018-07-23T04:22:52.583Z,90
2018-07-23T04:23:53.896Z,95
2018-07-23T04:24:55.203Z,101
2018-07-23T04:25:56.516Z,101
2018-07-23T04:26:57.847Z,106
2018-07-23T04:27:59.177Z,112
2018-07-23T04:29:00.496Z,112
2018-07-23T04:30:01.825Z,118
2018-07-23T04:31:03.135Z,123
2018-07-23T04:32:04.462Z,123
2018-07-23T04:33:05.772Z,129
2018-07-23T04:34:07.097Z,129
2018-07-23T04:35:08.420Z,129
2018-07-23T04:36:09.743Z,135
2018-07-23T04:37:11.071Z,140
2018-07-23T04:38:12.377Z,146
2018-07-23T04:39:13.700Z,151
2018-07-23T04:40:15.013Z,157
2018-07-23T04:41:16.338Z,168
2018-07-23T04:42:17.673Z,174
2018-07-23T04:43:18.973Z,180
2018-07-23T04:44:20.286Z,180
2018-07-23T04:45:21.598Z,185
2018-07-23T04:46:22.921Z,191
2018-07-23T04:47:24.232Z,191
2018-07-23T04:48:25.556Z,196
2018-07-23T04:49:26.878Z,196
2018-07-23T04:50:28.218Z,202
2018-07-23T04:51:29.528Z,208
2018-07-23T04:52:30.846Z,208
2018-07-23T04:53:32.169Z,213
2018-07-23T04:54:33.482Z,213
2018-07-23T04:55:34.803Z,219
2018-07-23T04:56:36.154Z,225
2018-07-23T04:57:37.426Z,225
2018-07-23T04:58:38.755Z,230
2018-07-23T04:59:40.072Z,236
2018-07-23T05:00:41.388Z,241
2018-07-23T05:01:42.715Z,247
2018-07-23T05:02:44.037Z,253
2018-07-23T05:03:45.359Z,258
2018-07-23T05:04:46.682Z,258
2018-07-23T05:05:48.022Z,264
2018-07-23T05:06:49.333Z,270
2018-07-23T05:07:50.658Z,275
2018-07-23T05:08:51.973Z,275
2018-07-23T05:09:53.311Z,281
2018-07-23T05:10:54.630Z,286
2018-07-23T05:11:55.946Z,292
2018-07-23T05:12:57.258Z,292
2018-07-23T05:13:58.578Z,298
2018-07-23T05:14:59.897Z,309
2018-07-23T05:16:01.246Z,309
2018-07-23T05:17:02.538Z,315
2018-07-23T05:18:03.852Z,320
2018-07-23T05:19:05.172Z,326
2018-07-23T05:20:06.527Z,331
2018-07-23T05:21:07.816Z,331
2018-07-23T05:22:09.137Z,337
2018-07-23T05:23:10.471Z,343
2018-07-23T05:24:11.777Z,348
2018-07-23T05:25:13.587Z,354
2018-07-23T05:26:14.446Z,360
2018-07-23T05:27:15.736Z,365
2018-07-23T05:28:17.062Z,371
2018-07-23T05:29:18.386Z,376
2018-07-23T05:30:19.698Z,382
2018-07-23T05:31:21.023Z,388
2018-07-23T05:32:22.342Z,393
2018-07-23T05:33:23.668Z,399
2018-07-23T05:34:24.984Z,405
2018-07-23T05:35:26.310Z,410
2018-07-23T05:36:27.623Z,421
2018-07-23T05:37:28.945Z,438
2018-07-23T05:38:30.325Z,444
2018-07-23T05:39:31.612Z,461
2018-07-23T05:40:32.928Z,472
2018-07-23T05:41:34.276Z,483
2018-07-23T05:42:35.601Z,478
2018-07-23T05:43:36.917Z,472
2018-07-23T05:44:38.233Z,455
2018-07-23T05:45:39.562Z,444
2018-07-23T05:46:40.877Z,438
2018-07-23T05:47:42.201Z,438
2018-07-23T05:48:43.522Z,444
2018-07-23T05:49:44.844Z,455
2018-07-23T05:50:46.164Z,478
2018-07-23T05:51:47.485Z,495
2018-07-23T05:52:48.802Z,495
2018-07-23T05:53:50.117Z,483
2018-07-23T05:54:51.441Z,495
2018-07-23T05:55:52.761Z,517
2018-07-23T05:56:54.084Z,534
2018-07-23T05:57:55.409Z,556
2018-07-23T05:58:56.744Z,573
2018-07-23T05:59:58.059Z,590
2018-07-23T06:00:59.388Z,613
2018-07-23T06:02:00.689Z,635
2018-07-23T06:03:02.023Z,669
2018-07-23T06:04:03.338Z,725
2018-07-23T06:05:04.660Z,736
2018-07-23T06:06:05.978Z,720
2018-07-23T06:07:07.292Z,731
2018-07-23T06:08:08.627Z,753
2018-07-23T06:09:09.936Z,810
2018-07-23T06:10:11.279Z,787
2018-07-23T06:11:12.596Z,753
2018-07-23T06:12:14.433Z,798
2018-07-23T06:13:15.837Z,798
2018-07-23T06:14:17.054Z,838
2018-07-23T06:15:18.383Z,877
2018-07-23T06:16:19.708Z,933
2018-07-23T06:17:21.046Z,905
2018-07-23T06:18:22.383Z,911
2018-07-23T06:19:23.691Z,928
2018-07-23T06:20:25.023Z,950
2018-07-23T06:21:26.347Z,939
2018-07-23T06:22:27.663Z,900
2018-07-23T06:23:28.996Z,916
2018-07-23T06:24:30.318Z,708
2018-07-23T06:25:31.643Z,579
2018-07-23T06:26:32.967Z,495
2018-07-23T06:27:34.278Z,444
2018-07-23T06:28:35.612Z,410
2018-07-23T06:29:36.938Z,399
2018-07-23T06:30:38.279Z,399
2018-07-23T06:31:39.608Z,410
2018-07-23T06:32:40.918Z,427
2018-07-23T06:33:42.258Z,433
2018-07-23T06:34:43.591Z,444
2018-07-23T06:35:44.929Z,472
2018-07-23T06:36:46.239Z,500
2018-07-23T06:37:47.571Z,523
2018-07-23T06:38:48.896Z,556
2018-07-23T06:39:50.213Z,590
2018-07-23T06:40:51.548Z,624
2018-07-23T06:41:52.872Z,658
2018-07-23T06:42:54.201Z,669
2018-07-23T06:43:55.538Z,686
2018-07-23T06:44:56.856Z,691
2018-07-23T06:45:58.179Z,697
2018-07-23T06:46:59.507Z,697
2018-07-23T06:48:00.833Z,703
2018-07-23T06:49:02.152Z,720
2018-07-23T06:50:03.489Z,714
2018-07-23T06:51:04.808Z,703
2018-07-23T06:52:06.129Z,703
2018-07-23T06:53:07.471Z,708
2018-07-23T06:54:08.801Z,708
2018-07-23T06:55:10.106Z,720
2018-07-23T06:56:11.429Z,731
2018-07-23T06:57:12.763Z,748
2018-07-23T06:58:14.088Z,759
2018-07-23T06:59:15.409Z,770
2018-07-23T07:00:16.742Z,776
2018-07-23T07:01:18.078Z,781
2018-07-23T07:02:19.401Z,793
2018-07-23T07:03:20.744Z,804
2018-07-23T07:04:22.053Z,826
2018-07-23T07:05:23.373Z,843
2018-07-23T07:06:24.727Z,855
2018-07-23T07:07:26.040Z,866
2018-07-23T07:08:27.359Z,871
2018-07-23T07:09:28.681Z,894
2018-07-23T07:10:30.008Z,900
2018-07-23T07:11:31.334Z,900
2018-07-23T07:12:32.662Z,900
2018-07-23T07:13:34.047Z,922
2018-07-23T07:14:35.316Z,933
2018-07-23T07:15:36.650Z,961
2018-07-23T07:16:38.010Z,1029
2018-07-23T07:17:39.309Z,1158
2018-07-23T07:18:40.629Z,1254
2018-07-23T07:19:41.954Z,1569
2018-07-23T07:20:43.287Z,1192
2018-07-23T07:21:44.620Z,1113
2018-07-23T07:22:45.952Z,1113
2018-07-23T07:23:47.284Z,1085
2018-07-23T07:24:48.608Z,1091
2018-07-23T07:25:49.953Z,1141
2018-07-23T07:26:51.282Z,1130
2018-07-23T07:27:52.609Z,1158
2018-07-23T07:28:53.939Z,1215
2018-07-23T07:29:55.304Z,1192
2018-07-23T07:30:56.659Z,1141
2018-07-23T07:31:57.990Z,1102
2018-07-23T07:32:59.322Z,1068
2018-07-23T07:34:00.650Z,1035
2018-07-23T07:35:01.979Z,1040
2018-07-23T07:36:03.305Z,1063
2018-07-23T07:37:04.629Z,1119
2018-07-23T07:38:05.985Z,1231
2018-07-23T07:39:07.260Z,1243
2018-07-23T07:40:08.590Z,1316
2018-07-23T07:41:09.909Z,1569
2018-07-23T07:42:11.255Z,1333
2018-07-23T07:43:12.588Z,1350
2018-07-23T07:44:13.927Z,1653
2018-07-23T07:45:15.247Z,1575
2018-07-23T07:46:16.569Z,1715
2018-07-23T07:47:17.895Z,1485
2018-07-23T07:48:19.233Z,1974
2018-07-23T07:49:20.573Z,1586
2018-07-23T07:50:21.893Z,1366
2018-07-23T07:51:23.229Z,1445
2018-07-23T07:52:24.560Z,1625
2018-07-23T07:53:25.884Z,1552
2018-07-23T07:54:27.228Z,1777
2018-07-23T07:55:28.564Z,1726
2018-07-23T07:56:29.907Z,1569
2018-07-23T07:57:31.239Z,1625
2018-07-23T07:58:32.568Z,1670
2018-07-23T07:59:33.893Z,1935
2018-07-23T08:00:35.223Z,1530
2018-07-23T08:01:36.784Z,1507
2018-07-23T08:02:38.108Z,1698
2018-07-23T08:03:39.449Z,1805
2018-07-23T08:04:40.781Z,1760
2018-07-23T08:05:42.108Z,1743
2018-07-23T08:06:43.459Z,1884
2018-07-23T08:07:44.816Z,2272
2018-07-23T08:08:46.154Z,1839
2018-07-23T08:09:47.486Z,2002
2018-07-23T08:10:48.819Z,2025
2018-07-23T08:11:50.156Z,2092
2018-07-23T08:12:51.519Z,2351
2018-07-23T08:13:52.841Z,2525
2018-07-23T08:14:54.182Z,2176
2018-07-23T08:15:55.571Z,2227
2018-07-23T08:16:56.866Z,2373
2018-07-23T08:17:58.241Z,2379
2018-07-23T08:18:59.485Z,2289
2018-07-23T08:20:00.826Z,2216
2018-07-23T08:21:02.150Z,2390
2018-07-23T08:22:03.476Z,2345
2018-07-23T08:23:04.811Z,2525
2018-07-23T08:24:06.156Z,2503
2018-07-23T08:25:07.538Z,2520
2018-07-23T08:26:08.792Z,2508
2018-07-23T08:27:10.128Z,2525
2018-07-23T08:28:11.470Z,2508
2018-07-23T08:29:12.800Z,2514
2018-07-23T08:30:14.142Z,2514
2018-07-23T08:31:15.474Z,2491
2018-07-23T08:32:16.854Z,2553
2018-07-23T08:33:18.106Z,2565
2018-07-23T08:34:19.441Z,2531
2018-07-23T08:35:20.777Z,2525
2018-07-23T08:36:22.101Z,1923
2018-07-23T08:37:23.451Z,2531
2018-07-23T08:38:24.782Z,2576
2018-07-23T08:39:26.111Z,2559
2018-07-23T08:40:27.466Z,2632
2018-07-23T08:41:28.800Z,2649
2018-07-23T08:42:30.146Z,2576
2018-07-23T08:43:31.478Z,2677
2018-07-23T08:44:32.815Z,2632
2018-07-23T08:45:34.154Z,2666
2018-07-23T08:46:35.490Z,2666
2018-07-23T08:47:36.821Z,2694
2018-07-23T08:48:38.173Z,2604
2018-07-23T08:49:39.484Z,2767
2018-07-23T08:50:40.811Z,2739
2018-07-23T08:51:42.169Z,2677
2018-07-23T08:52:43.515Z,2739
2018-07-23T08:53:44.857Z,2728
2018-07-23T08:54:46.200Z,2553
2018-07-23T08:55:47.545Z,2643
2018-07-23T08:56:48.879Z,2649
2018-07-23T08:57:50.215Z,2621
2018-07-23T08:58:51.601Z,2700
2018-07-23T08:59:52.902Z,2683
2018-07-23T09:00:54.252Z,2733
2018-07-23T09:01:55.598Z,2767
2018-07-23T09:02:56.935Z,2733
2018-07-23T09:03:58.270Z,2790
2018-07-23T09:04:59.616Z,2694
2018-07-23T09:06:00.955Z,2739
2018-07-23T09:07:02.294Z,2722
2018-07-23T09:08:03.639Z,2812
2018-07-23T09:09:04.993Z,2818
2018-07-23T09:10:06.328Z,2688
2018-07-23T09:11:07.660Z,2722
2018-07-23T09:12:09.000Z,2835
2018-07-23T09:13:10.334Z,2919
2018-07-23T09:14:11.669Z,2829
2018-07-23T09:15:13.000Z,2790
2018-07-23T09:16:14.344Z,2784
2018-07-23T09:17:15.740Z,2835
2018-07-23T09:18:17.011Z,2823
2018-07-23T09:19:18.347Z,2835
2018-07-23T09:20:19.692Z,2733
2018-07-23T09:21:21.034Z,2716
2018-07-23T09:22:22.380Z,2733
2018-07-23T09:23:23.737Z,2767
2018-07-23T09:24:25.093Z,2908
2018-07-23T09:25:26.427Z,2975
2018-07-23T09:26:27.766Z,2953
2018-07-23T09:27:29.116Z,2913
2018-07-23T09:28:30.452Z,2863
2018-07-23T09:29:31.790Z,2964
2018-07-23T09:30:33.134Z,2975
2018-07-23T09:31:34.467Z,2880
2018-07-23T09:32:35.812Z,2925
2018-07-23T09:33:37.150Z,2925
2018-07-23T09:34:38.486Z,2868
2018-07-23T09:35:39.835Z,2823
2018-07-23T09:36:41.179Z,2829
2018-07-23T09:37:42.511Z,2880
2018-07-23T09:38:43.860Z,2947
2018-07-23T09:39:45.219Z,3009
2018-07-23T09:40:46.560Z,3076
2018-07-23T09:41:47.891Z,2975
2018-07-23T09:42:49.242Z,2975
2018-07-23T09:43:50.586Z,2885
2018-07-23T09:44:51.926Z,2930
2018-07-23T09:45:53.265Z,2998
2018-07-23T09:46:54.600Z,3003
2018-07-23T09:47:55.946Z,2992
2018-07-23T09:48:57.289Z,2975
2018-07-23T09:49:58.616Z,2514
2018-07-23T09:50:59.965Z,2081
2018-07-23T09:52:01.311Z,2570
2018-07-23T09:53:02.648Z,2975
2018-07-23T09:54:03.995Z,2981
2018-07-23T09:55:05.330Z,2998
2018-07-23T09:56:06.661Z,3031
2018-07-23T09:57:08.011Z,3127
2018-07-23T09:58:09.352Z,3099
2018-07-23T09:59:10.695Z,3020
2018-07-23T10:00:12.030Z,3048
2018-07-23T10:01:13.365Z,3054
2018-07-23T10:02:14.702Z,3076
2018-07-23T10:03:16.170Z,3093
2018-07-23T10:04:17.391Z,3099
2018-07-23T10:05:18.735Z,3065
2018-07-23T10:06:20.088Z,3060
2018-07-23T10:07:21.435Z,3116
2018-07-23T10:08:22.782Z,3048
2018-07-23T10:09:24.117Z,3144
2018-07-23T10:10:25.480Z,3217
2018-07-23T10:11:26.817Z,3121
2018-07-23T10:12:28.160Z,3127
2018-07-23T10:13:29.497Z,3161
2018-07-23T10:14:30.846Z,3105
2018-07-23T10:15:32.182Z,3043
2018-07-23T10:16:33.532Z,3026
2018-07-23T10:17:34.869Z,2964
2018-07-23T10:18:36.220Z,3071
2018-07-23T10:19:37.563Z,3060
2018-07-23T10:20:38.900Z,3015
2018-07-23T10:21:40.240Z,3116
2018-07-23T10:22:41.589Z,3245
2018-07-23T10:23:42.921Z,3251
2018-07-23T10:24:44.307Z,3228
2018-07-23T10:25:45.609Z,3318
2018-07-23T10:26:46.948Z,3335
2018-07-23T10:27:48.332Z,3375
2018-07-23T10:28:49.677Z,3200
2018-07-23T10:29:51.013Z,3206
2018-07-23T10:30:52.366Z,3256
2018-07-23T10:31:53.720Z,3262
2018-07-23T10:32:55.066Z,3268
2018-07-23T10:33:56.397Z,3234
2018-07-23T10:34:57.747Z,3144
2018-07-23T10:35:59.085Z,3240
2018-07-23T10:37:00.426Z,3318
2018-07-23T10:38:01.774Z,3386
2018-07-23T10:39:03.120Z,3380
2018-07-23T10:40:04.452Z,3341
2018-07-23T10:41:05.817Z,3341
2018-07-23T10:42:07.151Z,3363
2018-07-23T10:43:08.487Z,3436
2018-07-23T10:44:09.835Z,3487
2018-07-23T10:45:11.182Z,3397
2018-07-23T10:46:12.517Z,3420
2018-07-23T10:47:13.879Z,3420
2018-07-23T10:48:15.230Z,3358
2018-07-23T10:49:16.597Z,3369
2018-07-23T10:50:17.947Z,3386
2018-07-23T10:51:19.300Z,3476
2018-07-23T10:52:21.472Z,3436
2018-07-23T10:53:22.832Z,3436
2018-07-23T10:54:24.160Z,3504
2018-07-23T10:55:25.508Z,3459
2018-07-23T10:56:26.855Z,3436
2018-07-23T10:57:28.237Z,3453
2018-07-23T10:58:29.567Z,3493
2018-07-23T10:59:30.910Z,3453
2018-07-23T11:00:32.248Z,3504
2018-07-23T11:01:33.603Z,3526
2018-07-23T11:02:34.942Z,3498
2018-07-23T11:03:36.288Z,3442
2018-07-23T11:04:37.626Z,3380
2018-07-23T11:05:38.971Z,3408
2018-07-23T11:06:40.336Z,3459
2018-07-23T11:07:41.675Z,3341
2018-07-23T11:08:43.017Z,3425
2018-07-23T11:09:44.367Z,3346
2018-07-23T11:10:45.717Z,3448
2018-07-23T11:11:47.062Z,3431
2018-07-23T11:12:48.443Z,3481
2018-07-23T11:13:49.710Z,3498
2018-07-23T11:14:51.082Z,3481
2018-07-23T11:15:52.433Z,3436
2018-07-23T11:16:53.801Z,3403
2018-07-23T11:17:55.147Z,3453
2018-07-23T11:18:56.486Z,3453
2018-07-23T11:19:57.826Z,3628
2018-07-23T11:20:59.182Z,3684
2018-07-23T11:22:00.528Z,3656
2018-07-23T11:23:01.879Z,3543
2018-07-23T11:24:03.216Z,3560
2018-07-23T11:25:38.323Z,3571
2018-07-23T11:26:05.919Z,3577
2018-07-23T11:27:07.268Z,3448
2018-07-23T11:28:08.616Z,3470
2018-07-23T11:29:09.958Z,3532
2018-07-23T11:30:11.347Z,3526
2018-07-23T11:31:12.687Z,3504
2018-07-23T11:32:14.042Z,3650
2018-07-23T11:33:15.397Z,3628
2018-07-23T11:34:16.766Z,3493
2018-07-23T11:35:18.131Z,3301
2018-07-23T11:36:19.487Z,3673
2018-07-23T11:37:20.824Z,3628
2018-07-23T11:38:22.191Z,3549
2018-07-23T11:39:23.537Z,3510
2018-07-23T11:40:24.869Z,3628
2018-07-23T11:41:26.256Z,3639
2018-07-23T11:42:27.556Z,3549
2018-07-23T11:43:28.896Z,3403
2018-07-23T11:44:30.257Z,3566
2018-07-23T11:45:31.628Z,3240
2018-07-23T11:46:32.972Z,2272
2018-07-23T11:47:34.318Z,1816
2018-07-23T11:48:35.687Z,1636
2018-07-23T11:49:37.004Z,1558
2018-07-23T11:50:38.397Z,1552
2018-07-23T11:51:39.726Z,1614
2018-07-23T11:52:41.077Z,2351
2018-07-23T11:53:42.453Z,2266
2018-07-23T11:54:43.768Z,1940
2018-07-23T11:55:45.123Z,1726
2018-07-23T11:56:46.532Z,1721
2018-07-23T11:57:47.786Z,1991
2018-07-23T11:58:49.109Z,3200
2018-07-23T11:59:50.468Z,3285
2018-07-23T12:00:51.808Z,3369
2018-07-23T12:01:53.205Z,3240
2018-07-23T12:02:54.529Z,3335
2018-07-23T12:03:55.877Z,2790
2018-07-23T12:04:57.214Z,2278
2018-07-23T12:05:58.557Z,2199
2018-07-23T12:06:59.899Z,1603
2018-07-23T12:08:01.256Z,1485
2018-07-23T12:09:02.595Z,1428
2018-07-23T12:10:03.935Z,1395
2018-07-23T12:11:05.275Z,1333
2018-07-23T12:12:06.626Z,1288
2018-07-23T12:13:07.977Z,1271
2018-07-23T12:14:09.317Z,1299
2018-07-23T12:15:10.658Z,1327
2018-07-23T12:16:12.014Z,1355
2018-07-23T12:17:13.391Z,1389
2018-07-23T12:18:14.723Z,1440
2018-07-23T12:19:16.093Z,1479
2018-07-23T12:20:17.437Z,1434
2018-07-23T12:21:18.773Z,1372
2018-07-23T12:22:20.120Z,1366
2018-07-23T12:23:21.456Z,1372
2018-07-23T12:24:22.797Z,1400
2018-07-23T12:25:24.134Z,1456
2018-07-23T12:26:25.470Z,2013
2018-07-23T12:27:26.813Z,1631
2018-07-23T12:28:28.143Z,2143
2018-07-23T12:29:29.493Z,2610
2018-07-23T12:30:30.827Z,2559
2018-07-23T12:31:32.190Z,2356
2018-07-23T12:32:33.610Z,2756
2018-07-23T12:33:34.877Z,2829
2018-07-23T12:34:36.226Z,3026
2018-07-23T12:35:37.570Z,2981
2018-07-23T12:36:38.903Z,2823
2018-07-23T12:37:40.242Z,2975
2018-07-23T12:38:41.579Z,2919
2018-07-23T12:39:43.003Z,2227
2018-07-23T12:40:44.225Z,2289
2018-07-23T12:41:45.574Z,2171
2018-07-23T12:42:46.919Z,2379
2018-07-23T12:43:48.276Z,2334
2018-07-23T12:44:49.612Z,1473
2018-07-23T12:45:50.950Z,1417
2018-07-23T12:46:52.297Z,1445
2018-07-23T12:47:53.638Z,1501
2018-07-23T12:48:54.982Z,1569
2018-07-23T12:49:56.328Z,1693
2018-07-23T12:50:57.703Z,2913
2018-07-23T12:51:59.032Z,3127
2018-07-23T12:53:00.372Z,3015
2018-07-23T12:54:01.715Z,3003
2018-07-23T12:55:03.057Z,2913
2018-07-23T12:56:04.399Z,2728
2018-07-23T12:57:05.754Z,2368
2018-07-23T12:58:07.092Z,2188
2018-07-23T12:59:08.424Z,2086
2018-07-23T13:00:09.763Z,2047
2018-07-23T13:01:11.115Z,1957
2018-07-23T13:02:12.459Z,2025
2018-07-23T13:03:13.820Z,2036
2018-07-23T13:04:15.169Z,2025
2018-07-23T13:05:16.505Z,2030
2018-07-23T13:06:17.867Z,2070
2018-07-23T13:07:19.202Z,2092
2018-07-23T13:08:20.558Z,2126
2018-07-23T13:09:21.908Z,2131
2018-07-23T13:10:23.257Z,2126
2018-07-23T13:11:24.593Z,2103
2018-07-23T13:12:26.167Z,2086
2018-07-23T13:13:27.545Z,2081
2018-07-23T13:14:28.893Z,2081
2018-07-23T13:15:30.229Z,2047
2018-07-23T13:16:31.578Z,2086
2018-07-23T13:17:32.928Z,2070
2018-07-23T13:18:34.275Z,2047
2018-07-23T13:19:35.618Z,2041
2018-07-23T13:20:36.974Z,2064
2018-07-23T13:21:38.320Z,2070
2018-07-23T13:22:39.658Z,2064
2018-07-23T13:23:40.995Z,2075
2018-07-23T13:24:42.357Z,2081
2018-07-23T13:25:43.734Z,2058
2018-07-23T13:26:45.060Z,2008
2018-07-23T13:27:46.398Z,1980
2018-07-23T13:28:47.748Z,1946
2018-07-23T13:29:49.084Z,2002
2018-07-23T13:30:50.552Z,2047
2018-07-23T13:31:51.919Z,2131
2018-07-23T13:32:53.240Z,2182
2018-07-23T13:33:54.592Z,2171
2018-07-23T13:34:55.922Z,2171
2018-07-23T13:35:57.263Z,2126
2018-07-23T13:36:58.622Z,2058
2018-07-23T13:37:59.989Z,2008
2018-07-23T13:39:01.320Z,2002
2018-07-23T13:40:02.664Z,1991
2018-07-23T13:41:04.005Z,2002
2018-07-23T13:42:05.353Z,2002
2018-07-23T13:43:06.707Z,2041
2018-07-23T13:44:08.081Z,2064
2018-07-23T13:45:09.423Z,2053
2018-07-23T13:46:10.783Z,2013
2018-07-23T13:47:12.125Z,1985
2018-07-23T13:48:13.468Z,1951
2018-07-23T13:49:14.817Z,1935
2018-07-23T13:50:16.163Z,1935
2018-07-23T13:51:17.497Z,1935
2018-07-23T13:52:18.830Z,1946
2018-07-23T13:53:20.186Z,1929
2018-07-23T13:54:21.535Z,1918
2018-07-23T13:55:22.870Z,1946
2018-07-23T13:56:24.212Z,1940
2018-07-23T13:57:25.555Z,1923
2018-07-23T13:58:26.897Z,1895
2018-07-23T13:59:28.248Z,1884
2018-07-23T14:00:29.571Z,1861
2018-07-23T14:01:30.954Z,1839
2018-07-23T14:02:32.298Z,1822
2018-07-23T14:03:33.625Z,1822
2018-07-23T14:04:34.969Z,1816
2018-07-23T14:05:36.323Z,1811
2018-07-23T14:06:37.662Z,1800